Time,TemperatureF,DewpointF,PressureIn,WindDirection,WindDirectionDegrees,WindSpeedMPH,WindSpeedGustMPH,Humidity,HourlyPrecipIn,Conditions,Clouds,dailyrainin,SoftwareType,DateUTC
2013-06-01 00:03:00,47.5,31.3,30.37,SSE,152,0.0,3.0,53,0.00,,,0.00,meteohub,2013-06-01 07:03:00,
2013-06-01 00:08:00,47.3,31.1,30.37,SSE,156,1.0,3.0,53,0.00,,,0.00,meteohub,2013-06-01 07:08:00,
2013-06-01 00:13:00,47.1,30.9,30.37,ESE,105,1.0,3.0,53,0.00,,,0.00,meteohub,2013-06-01 07:13:00,
2013-06-01 00:18:00,46.9,30.2,30.37,SSE,155,1.0,2.0,52,0.00,,,0.00,meteohub,2013-06-01 07:18:00,
2013-06-01 00:23:00,46.8,30.0,30.37,SSE,167,0.0,2.0,52,0.00,,,0.00,meteohub,2013-06-01 07:23:00,
2013-06-01 00:28:00,46.6,30.4,30.36,SSE,147,1.0,2.0,53,0.00,,,0.00,meteohub,2013-06-01 07:28:00,
2013-06-01 00:33:00,46.2,30.0,30.36,SSE,157,0.0,3.0,53,0.00,,,0.00,meteohub,2013-06-01 07:33:00,
2013-06-01 00:38:00,46.0,29.8,30.36,SSE,157,0.0,3.0,53,0.00,,,0.00,meteohub,2013-06-01 07:38:00,
2013-06-01 00:43:00,45.9,30.2,30.36,SSE,160,0.0,3.0,54,0.00,,,0.00,meteohub,2013-06-01 07:43:00,
2013-06-01 00:48:00,45.7,29.5,30.36,SSE,165,1.0,1.0,53,0.00,,,0.00,meteohub,2013-06-01 07:48:00,
2013-06-01 00:53:00,45.5,29.8,30.36,SSW,203,0.0,1.0,54,0.00,,,0.00,meteohub,2013-06-01 07:53:00,
2013-06-01 00:58:00,45.1,30.0,30.36,SSE,148,0.0,2.0,55,0.00,,,0.00,meteohub,2013-06-01 07:58:00,
2013-06-01 01:03:00,45.0,29.8,30.35,SSE,148,0.0,2.0,55,0.00,,,0.00,meteohub,2013-06-01 08:03:00,
2013-06-01 01:08:00,45.0,29.8,30.35,ESE,107,0.0,2.0,55,0.00,,,0.00,meteohub,2013-06-01 08:08:00,
2013-06-01 01:13:00,45.0,29.8,30.35,South,175,0.0,1.0,55,0.00,,,0.00,meteohub,2013-06-01 08:13:00,
2013-06-01 01:18:00,44.8,29.1,30.35,SE,144,0.0,1.0,54,0.00,,,0.00,meteohub,2013-06-01 08:18:00,
2013-06-01 01:23:00,44.4,28.8,30.35,SSE,149,0.0,2.0,54,0.00,,,0.00,meteohub,2013-06-01 08:23:00,
2013-06-01 01:28:00,44.2,29.1,30.35,SE,144,0.0,2.0,55,0.00,,,0.00,meteohub,2013-06-01 08:28:00,
2013-06-01 01:33:00,44.2,29.5,30.35,SE,134,0.0,2.0,56,0.00,,,0.00,meteohub,2013-06-01 08:33:00,
2013-06-01 01:38:00,44.1,29.3,30.35,South,187,0.0,1.0,56,0.00,,,0.00,meteohub,2013-06-01 08:38:00,
2013-06-01 01:43:00,43.7,29.5,30.35,SSW,196,0.0,1.0,57,0.00,,,0.00,meteohub,2013-06-01 08:43:00,
2013-06-01 01:48:00,43.3,29.5,30.35,SSE,148,1.0,1.0,58,0.00,,,0.00,meteohub,2013-06-01 08:48:00,
2013-06-01 01:53:00,43.2,29.3,30.35,SE,141,0.0,2.0,58,0.00,,,0.00,meteohub,2013-06-01 08:53:00,
2013-06-01 01:58:00,43.0,29.3,30.35,SSE,154,2.0,2.0,58,0.00,,,0.00,meteohub,2013-06-01 08:58:00,
2013-06-01 02:03:00,42.8,29.5,30.35,SSE,157,1.0,3.0,59,0.00,,,0.00,meteohub,2013-06-01 09:03:00,
2013-06-01 02:08:00,42.6,29.7,30.35,South,191,0.0,4.0,60,0.00,,,0.00,meteohub,2013-06-01 09:08:00,
2013-06-01 02:13:00,42.8,29.1,30.35,SSE,154,1.0,4.0,58,0.00,,,0.00,meteohub,2013-06-01 09:13:00,
2013-06-01 02:18:00,43.0,29.3,30.35,SSE,150,1.0,3.0,58,0.00,,,0.00,meteohub,2013-06-01 09:18:00,
2013-06-01 02:23:00,43.2,29.3,30.35,SSE,163,0.0,2.0,58,0.00,,,0.00,meteohub,2013-06-01 09:23:00,
2013-06-01 02:28:00,43.2,28.9,30.35,South,176,0.0,2.0,57,0.00,,,0.00,meteohub,2013-06-01 09:28:00,
2013-06-01 02:34:00,43.2,28.6,30.35,SSW,195,1.0,3.0,56,0.00,,,0.00,meteohub,2013-06-01 09:34:00,
2013-06-01 02:39:00,43.0,28.4,30.35,SSE,163,0.0,3.0,56,0.00,,,0.00,meteohub,2013-06-01 09:39:00,
2013-06-01 02:44:00,42.8,28.6,30.35,SSW,198,0.0,3.0,57,0.00,,,0.00,meteohub,2013-06-01 09:44:00,
2013-06-01 02:49:00,42.6,28.4,30.35,SSE,167,0.0,2.0,57,0.00,,,0.00,meteohub,2013-06-01 09:49:00,
2013-06-01 02:54:00,42.3,28.0,30.35,SSE,149,2.0,2.0,57,0.00,,,0.00,meteohub,2013-06-01 09:54:00,
2013-06-01 02:59:00,42.1,28.8,30.35,SSW,192,0.0,3.0,59,0.00,,,0.00,meteohub,2013-06-01 09:59:00,
2013-06-01 03:04:00,41.7,28.4,30.34,SSE,156,0.0,3.0,59,0.00,,,0.00,meteohub,2013-06-01 10:04:00,
2013-06-01 03:09:00,41.5,28.2,30.34,SSE,148,0.0,3.0,59,0.00,,,0.00,meteohub,2013-06-01 10:09:00,
2013-06-01 03:14:00,41.5,28.2,30.34,SSE,155,0.0,3.0,59,0.00,,,0.00,meteohub,2013-06-01 10:14:00,
2013-06-01 03:19:00,41.7,28.4,30.34,SE,136,0.0,2.0,59,0.00,,,0.00,meteohub,2013-06-01 10:19:00,
2013-06-01 03:24:00,41.9,27.3,30.34,ESE,105,0.0,2.0,56,0.00,,,0.00,meteohub,2013-06-01 10:24:00,
2013-06-01 03:29:00,41.9,28.2,30.34,SSE,157,0.0,2.0,58,0.00,,,0.00,meteohub,2013-06-01 10:29:00,
2013-06-01 03:34:00,41.5,27.9,30.34,SSW,207,0.0,2.0,58,0.00,,,0.00,meteohub,2013-06-01 10:34:00,
2013-06-01 03:39:00,41.4,28.6,30.35,SSE,156,0.0,2.0,60,0.00,,,0.00,meteohub,2013-06-01 10:39:00,
2013-06-01 03:44:00,40.8,28.4,30.34,SE,134,1.0,1.0,61,0.00,,,0.00,meteohub,2013-06-01 10:44:00,
2013-06-01 03:49:00,40.6,28.2,30.34,SSE,155,1.0,1.0,61,0.00,,,0.00,meteohub,2013-06-01 10:49:00,
2013-06-01 03:54:00,40.3,27.9,30.34,SSE,155,0.0,2.0,61,0.00,,,0.00,meteohub,2013-06-01 10:54:00,
2013-06-01 03:59:00,40.3,27.9,30.34,SE,129,1.0,2.0,61,0.00,,,0.00,meteohub,2013-06-01 10:59:00,
2013-06-01 04:04:00,40.5,27.7,30.33,SSE,157,1.0,2.0,60,0.00,,,0.00,meteohub,2013-06-01 11:04:00,
2013-06-01 04:09:00,40.6,27.5,30.33,SSE,157,1.0,3.0,59,0.00,,,0.00,meteohub,2013-06-01 11:09:00,
2013-06-01 04:14:00,40.6,27.9,30.34,SSW,192,0.0,3.0,60,0.00,,,0.00,meteohub,2013-06-01 11:14:00,
2013-06-01 04:19:00,40.6,27.9,30.34,SSW,192,0.0,3.0,60,0.00,,,0.00,meteohub,2013-06-01 11:19:00,
2013-06-01 04:24:00,40.5,28.0,30.34,SSE,150,0.0,2.0,61,0.00,,,0.00,meteohub,2013-06-01 11:24:00,
2013-06-01 04:29:00,40.3,27.5,30.34,SE,144,1.0,2.0,60,0.00,,,0.00,meteohub,2013-06-01 11:29:00,
2013-06-01 04:34:00,39.9,28.0,30.34,SSW,196,0.0,1.0,62,0.00,,,0.00,meteohub,2013-06-01 11:34:00,
2013-06-01 04:39:00,39.7,28.2,30.34,SE,128,0.0,1.0,63,0.00,,,0.00,meteohub,2013-06-01 11:39:00,
2013-06-01 04:44:00,39.6,28.0,30.34,SSE,160,1.0,1.0,63,0.00,,,0.00,meteohub,2013-06-01 11:44:00,
2013-06-01 04:49:00,39.4,27.9,30.34,South,188,0.0,1.0,63,0.00,,,0.00,meteohub,2013-06-01 11:49:00,
2013-06-01 04:54:00,39.4,27.9,30.33,SSE,153,1.0,2.0,63,0.00,,,0.00,meteohub,2013-06-01 11:54:00,
2013-06-01 04:59:00,39.2,27.7,30.34,South,175,0.0,2.0,63,0.00,,,0.00,meteohub,2013-06-01 11:59:00,
2013-06-01 05:04:00,39.2,28.0,30.34,South,182,0.0,3.0,64,0.00,,,0.00,meteohub,2013-06-01 12:04:00,
2013-06-01 05:09:00,39.0,27.9,30.33,South,182,0.0,3.0,64,0.00,,,0.00,meteohub,2013-06-01 12:09:00,
2013-06-01 05:14:00,39.0,27.9,30.34,ESE,116,0.0,2.0,64,0.00,,,0.00,meteohub,2013-06-01 12:14:00,
2013-06-01 05:19:00,38.8,28.0,30.33,SE,146,0.0,1.0,65,0.00,,,0.00,meteohub,2013-06-01 12:19:00,
2013-06-01 05:24:00,38.7,27.9,30.33,SE,140,0.0,1.0,65,0.00,,,0.00,meteohub,2013-06-01 12:24:00,
2013-06-01 05:29:00,38.7,27.9,30.33,SE,124,0.0,1.0,65,0.00,,,0.00,meteohub,2013-06-01 12:29:00,
2013-06-01 05:34:00,38.7,27.9,30.33,SSE,156,0.0,1.0,65,0.00,,,0.00,meteohub,2013-06-01 12:34:00,
2013-06-01 05:39:00,38.5,27.7,30.34,SSE,153,1.0,1.0,65,0.00,,,0.00,meteohub,2013-06-01 12:39:00,
2013-06-01 05:44:00,38.5,28.0,30.34,SE,146,0.0,1.0,66,0.00,,,0.00,meteohub,2013-06-01 12:44:00,
2013-06-01 05:49:00,38.3,27.9,30.34,SSE,148,0.0,1.0,66,0.00,,,0.00,meteohub,2013-06-01 12:49:00,
2013-06-01 05:54:00,38.1,27.9,30.34,SSE,160,1.0,2.0,66,0.00,,,0.00,meteohub,2013-06-01 12:54:00,
2013-06-01 05:59:00,38.1,27.9,30.34,SSE,150,1.0,2.0,66,0.00,,,0.00,meteohub,2013-06-01 12:59:00,
2013-06-01 06:04:00,38.5,28.0,30.34,SE,139,1.0,2.0,66,0.00,,,0.00,meteohub,2013-06-01 13:04:00,
2013-06-01 06:09:00,39.7,28.6,30.34,SSE,159,1.0,2.0,64,0.00,,,0.00,meteohub,2013-06-01 13:09:00,
2013-06-01 06:14:00,40.8,28.8,30.34,SE,133,1.0,2.0,62,0.00,,,0.00,meteohub,2013-06-01 13:14:00,
2013-06-01 06:19:00,42.1,29.1,30.34,SE,141,1.0,2.0,60,0.00,,,0.00,meteohub,2013-06-01 13:19:00,
2013-06-01 06:24:00,43.0,29.3,30.34,SE,146,2.0,2.0,58,0.00,,,0.00,meteohub,2013-06-01 13:24:00,
2013-06-01 06:29:00,43.2,29.3,30.34,SSE,154,1.0,3.0,58,0.00,,,0.00,meteohub,2013-06-01 13:29:00,
2013-06-01 06:34:00,43.5,29.3,30.34,SSE,153,3.0,3.0,57,0.00,,,0.00,meteohub,2013-06-01 13:34:00,
2013-06-01 06:39:00,44.2,30.0,30.34,SSE,148,0.0,3.0,57,0.00,,,0.00,meteohub,2013-06-01 13:39:00,
2013-06-01 06:44:00,45.7,30.4,30.35,SSE,150,1.0,3.0,55,0.00,,,0.00,meteohub,2013-06-01 13:44:00,
2013-06-01 06:49:00,46.0,29.8,30.35,SSE,154,2.0,3.0,53,0.00,,,0.00,meteohub,2013-06-01 13:49:00,
2013-06-01 06:54:00,46.0,30.4,30.34,SSE,153,2.0,2.0,54,0.00,,,0.00,meteohub,2013-06-01 13:54:00,
2013-06-01 06:59:00,46.0,30.4,30.34,SSE,153,1.0,2.0,54,0.00,,,0.00,meteohub,2013-06-01 13:59:00,
2013-06-01 07:04:00,46.4,30.2,30.34,SE,141,0.0,3.0,53,0.00,,,0.00,meteohub,2013-06-01 14:04:00,
2013-06-01 07:09:00,47.5,31.3,30.33,SSE,147,0.0,3.0,53,0.00,,,0.00,meteohub,2013-06-01 14:09:00,
2013-06-01 07:14:00,48.6,31.3,30.33,SSE,165,0.0,3.0,51,0.00,,,0.00,meteohub,2013-06-01 14:14:00,
2013-06-01 07:19:00,49.3,32.0,30.33,SSW,205,0.0,3.0,51,0.00,,,0.00,meteohub,2013-06-01 14:19:00,
2013-06-01 07:24:00,50.4,32.4,30.32,SSE,150,0.0,3.0,50,0.00,,,0.00,meteohub,2013-06-01 14:24:00,
2013-06-01 07:30:00,51.3,32.7,30.32,SSE,147,1.0,3.0,49,0.00,,,0.00,meteohub,2013-06-01 14:30:00,
2013-06-01 07:35:00,52.2,33.6,30.32,SSE,148,1.0,2.0,49,0.00,,,0.00,meteohub,2013-06-01 14:35:00,
2013-06-01 07:40:00,53.2,35.1,30.32,SE,138,0.0,2.0,50,0.00,,,0.00,meteohub,2013-06-01 14:40:00,
2013-06-01 07:45:00,53.6,34.9,30.32,ESE,121,0.0,1.0,49,0.00,,,0.00,meteohub,2013-06-01 14:45:00,
2013-06-01 07:50:00,53.2,35.1,30.32,ESE,109,0.0,1.0,50,0.00,,,0.00,meteohub,2013-06-01 14:50:00,
2013-06-01 07:55:00,54.1,35.4,30.31,SSE,149,1.0,1.0,49,0.00,,,0.00,meteohub,2013-06-01 14:55:00,
2013-06-01 08:00:00,55.8,34.7,30.31,SSE,148,0.0,2.0,45,0.00,,,0.00,meteohub,2013-06-01 15:00:00,
2013-06-01 08:05:00,57.6,36.3,30.31,SSE,148,0.0,2.0,45,0.00,,,0.00,meteohub,2013-06-01 15:05:00,
2013-06-01 08:10:00,58.3,36.0,30.31,WSW,250,1.0,2.0,43,0.00,,,0.00,meteohub,2013-06-01 15:10:00,
2013-06-01 08:15:00,56.8,34.5,30.31,NW,309,2.0,2.0,43,0.00,,,0.00,meteohub,2013-06-01 15:15:00,
2013-06-01 08:20:00,55.9,34.9,30.31,NW,311,2.0,3.0,45,0.00,,,0.00,meteohub,2013-06-01 15:20:00,
2013-06-01 08:25:00,55.6,37.8,30.31,NW,311,2.0,3.0,51,0.00,,,0.00,meteohub,2013-06-01 15:25:00,
2013-06-01 08:30:00,55.2,37.4,30.31,NNW,340,8.0,8.0,51,0.00,,,0.00,meteohub,2013-06-01 15:30:00,
2013-06-01 08:35:00,54.0,37.8,30.31,NE,35,7.0,9.0,54,0.00,,,0.00,meteohub,2013-06-01 15:35:00,
2013-06-01 08:40:00,53.4,36.7,30.31,NNE,32,8.0,9.0,53,0.00,,,0.00,meteohub,2013-06-01 15:40:00,
2013-06-01 08:45:00,53.2,38.8,30.31,NNW,346,6.0,9.0,58,0.00,,,0.00,meteohub,2013-06-01 15:45:00,
2013-06-01 08:50:00,53.2,37.9,30.31,NNW,333,3.0,9.0,56,0.00,,,0.00,meteohub,2013-06-01 15:50:00,
2013-06-01 08:55:00,53.4,37.6,30.31,NNW,337,0.0,8.0,55,0.00,,,0.00,meteohub,2013-06-01 15:55:00,
2013-06-01 09:00:00,54.5,39.2,30.31,WNW,295,0.0,6.0,56,0.00,,,0.00,meteohub,2013-06-01 16:00:00,
2013-06-01 09:05:00,55.9,35.4,30.31,WNW,295,0.0,3.0,46,0.00,,,0.00,meteohub,2013-06-01 16:05:00,
2013-06-01 09:10:00,57.0,40.1,30.31,WNW,294,0.0,1.0,53,0.00,,,0.00,meteohub,2013-06-01 16:10:00,
2013-06-01 09:15:00,58.1,42.1,30.31,WNW,286,0.0,1.0,55,0.00,,,0.00,meteohub,2013-06-01 16:15:00,
2013-06-01 09:20:00,58.3,40.8,30.31,WNW,286,1.0,1.0,52,0.00,,,0.00,meteohub,2013-06-01 16:20:00,
2013-06-01 09:25:00,58.1,41.5,30.31,WNW,286,0.0,1.0,54,0.00,,,0.00,meteohub,2013-06-01 16:25:00,
2013-06-01 09:30:00,57.9,41.9,30.31,WNW,286,0.0,1.0,55,0.00,,,0.00,meteohub,2013-06-01 16:30:00,
2013-06-01 09:35:00,58.3,42.6,30.31,WNW,286,0.0,1.0,56,0.00,,,0.00,meteohub,2013-06-01 16:35:00,
2013-06-01 09:41:00,58.6,42.4,30.31,WNW,286,0.0,1.0,55,0.00,,,0.00,meteohub,2013-06-01 16:41:00,
2013-06-01 09:46:00,58.6,40.6,30.30,NW,326,1.0,3.0,51,0.00,,,0.00,meteohub,2013-06-01 16:46:00,
2013-06-01 09:51:00,57.4,40.5,30.30,NNW,327,1.0,3.0,53,0.00,,,0.00,meteohub,2013-06-01 16:51:00,
2013-06-01 09:56:00,56.7,41.5,30.30,NNW,330,1.0,3.0,57,0.00,,,0.00,meteohub,2013-06-01 16:56:00,
2013-06-01 10:01:00,56.3,40.8,30.30,NNW,330,1.0,3.0,56,0.00,,,0.00,meteohub,2013-06-01 17:01:00,
2013-06-01 10:06:00,56.3,40.3,30.30,NW,325,1.0,3.0,55,0.00,,,0.00,meteohub,2013-06-01 17:06:00,
2013-06-01 10:11:00,56.1,40.1,30.30,NW,322,2.0,3.0,55,0.00,,,0.00,meteohub,2013-06-01 17:11:00,
2013-06-01 10:16:00,55.6,39.7,30.30,NW,321,2.0,3.0,55,0.00,,,0.00,meteohub,2013-06-01 17:16:00,
2013-06-01 10:21:00,55.6,38.7,30.30,NNW,328,1.0,3.0,53,0.00,,,0.00,meteohub,2013-06-01 17:21:00,
2013-06-01 10:26:00,55.6,38.3,30.30,NNW,329,2.0,3.0,52,0.00,,,0.00,meteohub,2013-06-01 17:26:00,
2013-06-01 10:31:00,55.6,39.7,30.30,NNW,329,1.0,3.0,55,0.00,,,0.00,meteohub,2013-06-01 17:31:00,
2013-06-01 10:36:00,55.6,40.1,30.29,NNW,329,1.0,3.0,56,0.00,,,0.00,meteohub,2013-06-01 17:36:00,
2013-06-01 10:41:00,55.8,41.2,30.29,NNW,329,1.0,3.0,58,0.00,,,0.00,meteohub,2013-06-01 17:41:00,
2013-06-01 10:46:00,55.8,40.8,30.29,North,11,3.0,3.0,57,0.00,,,0.00,meteohub,2013-06-01 17:46:00,
2013-06-01 10:51:00,55.8,43.0,30.29,NNE,28,2.0,4.0,62,0.00,,,0.00,meteohub,2013-06-01 17:51:00,
2013-06-01 10:56:00,55.6,41.5,30.29,NNW,342,2.0,4.0,59,0.00,,,0.00,meteohub,2013-06-01 17:56:00,
2013-06-01 11:01:00,55.6,43.5,30.29,NE,35,0.0,4.0,64,0.00,,,0.00,meteohub,2013-06-01 18:01:00,
2013-06-01 11:06:00,55.9,43.5,30.29,NNE,33,1.0,3.0,63,0.00,,,0.00,meteohub,2013-06-01 18:06:00,
2013-06-01 11:11:00,55.9,42.6,30.29,North,0,1.0,3.0,61,0.00,,,0.00,meteohub,2013-06-01 18:11:00,
2013-06-01 11:16:00,55.9,42.6,30.29,NNW,340,1.0,2.0,61,0.00,,,0.00,meteohub,2013-06-01 18:16:00,
2013-06-01 11:21:00,56.1,43.3,30.29,NNW,347,2.0,2.0,62,0.00,,,0.00,meteohub,2013-06-01 18:21:00,
2013-06-01 11:26:00,56.3,42.6,30.29,NNE,30,2.0,3.0,60,0.00,,,0.00,meteohub,2013-06-01 18:26:00,
2013-06-01 11:31:00,56.5,43.7,30.29,NNE,29,2.0,3.0,62,0.00,,,0.00,meteohub,2013-06-01 18:31:00,
2013-06-01 11:36:00,56.7,43.3,30.28,NE,44,2.0,3.0,61,0.00,,,0.00,meteohub,2013-06-01 18:36:00,
2013-06-01 11:41:00,56.8,43.9,30.28,NE,42,2.0,4.0,62,0.00,,,0.00,meteohub,2013-06-01 18:41:00,
2013-06-01 11:46:00,57.4,43.2,30.28,NNW,337,1.0,4.0,59,0.00,,,0.00,meteohub,2013-06-01 18:46:00,
2013-06-01 11:51:00,57.2,43.5,30.28,NW,324,1.0,3.0,60,0.00,,,0.00,meteohub,2013-06-01 18:51:00,
2013-06-01 11:56:00,57.6,44.6,30.28,NW,309,1.0,3.0,62,0.00,,,0.00,meteohub,2013-06-01 18:56:00,
2013-06-01 12:01:00,57.7,44.8,30.27,NW,322,2.0,3.0,62,0.00,,,0.00,meteohub,2013-06-01 19:01:00,
2013-06-01 12:06:00,57.7,44.4,30.27,NW,323,1.0,2.0,61,0.00,,,0.00,meteohub,2013-06-01 19:06:00,
2013-06-01 12:11:00,57.7,45.3,30.27,NW,326,1.0,2.0,63,0.00,,,0.00,meteohub,2013-06-01 19:11:00,
2013-06-01 12:17:00,57.7,45.3,30.27,NNW,330,1.0,2.0,63,0.00,,,0.00,meteohub,2013-06-01 19:17:00,
2013-06-01 12:22:00,57.9,45.3,30.27,NNW,337,1.0,2.0,63,0.00,,,0.00,meteohub,2013-06-01 19:22:00,
2013-06-01 12:27:00,57.9,45.9,30.27,NNW,340,1.0,2.0,64,0.00,,,0.00,meteohub,2013-06-01 19:27:00,
2013-06-01 12:32:00,57.9,46.2,30.27,NW,323,2.0,2.0,65,0.00,,,0.00,meteohub,2013-06-01 19:32:00,
2013-06-01 12:37:00,58.1,46.8,30.27,NNE,13,1.0,3.0,66,0.00,,,0.00,meteohub,2013-06-01 19:37:00,
2013-06-01 12:42:00,58.3,45.7,30.26,NNW,342,2.0,3.0,63,0.00,,,0.00,meteohub,2013-06-01 19:42:00,
2013-06-01 12:47:00,58.3,47.3,30.26,NE,44,3.0,4.0,67,0.00,,,0.00,meteohub,2013-06-01 19:47:00,
2013-06-01 12:52:00,58.3,46.2,30.26,NE,42,3.0,5.0,64,0.00,,,0.00,meteohub,2013-06-01 19:52:00,
2013-06-01 12:57:00,58.3,46.6,30.26,NE,44,3.0,5.0,65,0.00,,,0.00,meteohub,2013-06-01 19:57:00,
2013-06-01 13:02:00,58.8,46.2,30.26,NE,44,1.0,5.0,63,0.00,,,0.00,meteohub,2013-06-01 20:02:00,
2013-06-01 13:07:00,59.5,44.8,30.26,NE,44,2.0,5.0,58,0.00,,,0.00,meteohub,2013-06-01 20:07:00,
2013-06-01 13:12:00,59.9,43.7,30.25,NNE,31,4.0,4.0,55,0.00,,,0.00,meteohub,2013-06-01 20:12:00,
2013-06-01 13:17:00,59.9,43.7,30.25,NNE,28,4.0,5.0,55,0.00,,,0.00,meteohub,2013-06-01 20:17:00,
2013-06-01 13:22:00,60.1,45.3,30.25,NE,42,0.0,5.0,58,0.00,,,0.00,meteohub,2013-06-01 20:22:00,
2013-06-01 13:27:00,60.6,44.4,30.25,NE,46,3.0,5.0,55,0.00,,,0.00,meteohub,2013-06-01 20:27:00,
2013-06-01 13:32:00,61.0,41.2,30.25,NE,42,2.0,4.0,48,0.00,,,0.00,meteohub,2013-06-01 20:32:00,
2013-06-01 13:37:00,61.7,38.3,30.25,NE,37,2.0,3.0,42,0.00,,,0.00,meteohub,2013-06-01 20:37:00,
2013-06-01 13:42:00,62.4,37.2,30.25,NNW,346,2.0,3.0,39,0.00,,,0.00,meteohub,2013-06-01 20:42:00,
2013-06-01 13:47:00,62.8,34.7,30.25,NW,323,0.0,3.0,35,0.00,,,0.00,meteohub,2013-06-01 20:47:00,
2013-06-01 13:52:00,63.0,33.4,30.25,NNW,342,1.0,3.0,33,0.00,,,0.00,meteohub,2013-06-01 20:52:00,
2013-06-01 13:57:00,63.9,28.2,30.25,NNW,340,1.0,2.0,26,0.00,,,0.00,meteohub,2013-06-01 20:57:00,
2013-06-01 14:02:00,64.2,34.5,30.24,NNW,340,1.0,2.0,33,0.00,,,0.00,meteohub,2013-06-01 21:02:00,
2013-06-01 14:07:00,64.6,35.6,30.25,NNW,329,2.0,2.0,34,0.00,,,0.00,meteohub,2013-06-01 21:07:00,
2013-06-01 14:12:00,64.6,37.0,30.24,NNW,337,0.0,3.0,36,0.00,,,0.00,meteohub,2013-06-01 21:12:00,
2013-06-01 14:17:00,65.7,37.2,30.25,NNW,330,0.0,3.0,35,0.00,,,0.00,meteohub,2013-06-01 21:17:00,
2013-06-01 14:22:00,66.7,36.7,30.24,NNW,342,1.0,3.0,33,0.00,,,0.00,meteohub,2013-06-01 21:22:00,
2013-06-01 14:27:00,67.3,35.6,30.24,NNW,341,0.0,2.0,31,0.00,,,0.00,meteohub,2013-06-01 21:27:00,
2013-06-01 14:32:00,68.0,31.8,30.24,NNW,340,2.0,2.0,26,0.00,,,0.00,meteohub,2013-06-01 21:32:00,
2013-06-01 14:37:00,67.5,34.2,30.24,NNW,329,1.0,2.0,29,0.00,,,0.00,meteohub,2013-06-01 21:37:00,
2013-06-01 14:42:00,67.3,32.2,30.23,NNW,327,1.0,2.0,27,0.00,,,0.00,meteohub,2013-06-01 21:42:00,
2013-06-01 14:47:00,67.1,31.1,30.23,NNW,327,0.0,2.0,26,0.00,,,0.00,meteohub,2013-06-01 21:47:00,
2013-06-01 14:52:00,67.1,32.0,30.23,NNW,327,1.0,2.0,27,0.00,,,0.00,meteohub,2013-06-01 21:52:00,
2013-06-01 14:57:00,66.6,35.8,30.23,NNW,334,1.0,2.0,32,0.00,,,0.00,meteohub,2013-06-01 21:57:00,
2013-06-01 15:02:00,66.4,37.2,30.23,NNW,339,1.0,2.0,34,0.00,,,0.00,meteohub,2013-06-01 22:02:00,
2013-06-01 15:07:00,66.2,36.3,30.22,NW,326,1.0,2.0,33,0.00,,,0.00,meteohub,2013-06-01 22:07:00,
2013-06-01 15:12:00,66.0,34.5,30.22,NW,326,1.0,2.0,31,0.00,,,0.00,meteohub,2013-06-01 22:12:00,
2013-06-01 15:17:00,66.0,34.5,30.22,NNW,338,1.0,2.0,31,0.00,,,0.00,meteohub,2013-06-01 22:17:00,
2013-06-01 15:22:00,65.8,38.1,30.22,NNW,330,2.0,2.0,36,0.00,,,0.00,meteohub,2013-06-01 22:22:00,
2013-06-01 15:27:00,65.7,41.9,30.21,NNW,346,1.0,3.0,42,0.00,,,0.00,meteohub,2013-06-01 22:27:00,
2013-06-01 15:32:00,65.8,39.6,30.21,NNW,342,0.0,3.0,38,0.00,,,0.00,meteohub,2013-06-01 22:32:00,
2013-06-01 15:37:00,66.0,37.6,30.21,NNW,340,1.0,3.0,35,0.00,,,0.00,meteohub,2013-06-01 22:37:00,
2013-06-01 15:42:00,66.4,34.9,30.21,NNW,340,2.0,2.0,31,0.00,,,0.00,meteohub,2013-06-01 22:42:00,
2013-06-01 15:47:00,66.7,36.7,30.20,NNW,337,1.0,2.0,33,0.00,,,0.00,meteohub,2013-06-01 22:47:00,
2013-06-01 15:52:00,66.9,30.9,30.20,NNW,329,0.0,2.0,26,0.00,,,0.00,meteohub,2013-06-01 22:52:00,
2013-06-01 15:57:00,66.6,35.8,30.20,NNW,328,0.0,2.0,32,0.00,,,0.00,meteohub,2013-06-01 22:57:00,
2013-06-01 16:02:00,66.7,38.3,30.20,NNW,330,0.0,2.0,35,0.00,,,0.00,meteohub,2013-06-01 23:02:00,
2013-06-01 16:07:00,67.3,37.2,30.20,NNW,330,0.0,0.0,33,0.00,,,0.00,meteohub,2013-06-01 23:07:00,
2013-06-01 16:12:00,68.0,39.4,30.20,NNW,330,0.0,1.0,35,0.00,,,0.00,meteohub,2013-06-01 23:12:00,
2013-06-01 16:17:00,67.8,34.3,30.20,NNW,330,0.0,1.0,29,0.00,,,0.00,meteohub,2013-06-01 23:17:00,
2013-06-01 16:22:00,67.8,34.3,30.20,NNW,330,2.0,2.0,29,0.00,,,0.00,meteohub,2013-06-01 23:22:00,
2013-06-01 16:27:00,67.6,39.0,30.20,NNW,333,0.0,2.0,35,0.00,,,0.00,meteohub,2013-06-01 23:27:00,
2013-06-01 16:32:00,67.6,30.6,30.19,NNW,333,1.0,2.0,25,0.00,,,0.00,meteohub,2013-06-01 23:32:00,
2013-06-01 16:37:00,67.3,35.6,30.20,NNW,334,1.0,2.0,31,0.00,,,0.00,meteohub,2013-06-01 23:37:00,
2013-06-01 16:42:00,66.9,34.5,30.19,NW,323,2.0,2.0,30,0.00,,,0.00,meteohub,2013-06-01 23:42:00,
2013-06-01 16:47:00,67.3,33.1,30.19,NNW,329,1.0,3.0,28,0.00,,,0.00,meteohub,2013-06-01 23:47:00,
2013-06-01 16:52:00,67.6,33.4,30.20,NNW,333,0.0,3.0,28,0.00,,,0.00,meteohub,2013-06-01 23:52:00,
2013-06-01 16:57:00,67.6,36.0,30.19,NNW,333,0.0,2.0,31,0.00,,,0.00,meteohub,2013-06-01 23:57:00,
2013-06-01 17:02:00,67.6,33.4,30.19,NNE,19,1.0,2.0,28,0.00,,,0.00,meteohub,2013-06-02 00:02:00,
2013-06-01 17:07:00,68.2,34.7,30.19,NNE,33,2.0,2.0,29,0.00,,,0.00,meteohub,2013-06-02 00:07:00,
2013-06-01 17:12:00,68.4,35.8,30.19,NNW,331,2.0,3.0,30,0.00,,,0.00,meteohub,2013-06-02 00:12:00,
2013-06-01 17:17:00,68.5,40.5,30.19,NNW,344,2.0,5.0,36,0.00,,,0.00,meteohub,2013-06-02 00:17:00,
2013-06-01 17:22:00,68.2,38.7,30.19,NNW,344,1.0,6.0,34,0.00,,,0.00,meteohub,2013-06-02 00:22:00,
2013-06-01 17:27:00,68.5,41.9,30.19,NNW,338,0.0,6.0,38,0.00,,,0.00,meteohub,2013-06-02 00:27:00,
2013-06-01 17:32:00,71.4,43.7,30.18,SSW,208,1.0,6.0,37,0.00,,,0.00,meteohub,2013-06-02 00:32:00,
2013-06-01 17:37:00,73.8,43.7,30.18,SW,219,0.0,5.0,34,0.00,,,0.00,meteohub,2013-06-02 00:37:00,
2013-06-01 17:42:00,74.8,41.4,30.18,East,90,1.0,3.0,30,0.00,,,0.00,meteohub,2013-06-02 00:42:00,
2013-06-01 17:47:00,74.8,41.4,30.17,West,261,2.0,4.0,30,0.00,,,0.00,meteohub,2013-06-02 00:47:00,
2013-06-01 17:52:00,74.7,42.8,30.17,SSE,160,0.0,4.0,32,0.00,,,0.00,meteohub,2013-06-02 00:52:00,
2013-06-01 17:57:00,74.7,42.1,30.17,NE,55,1.0,4.0,31,0.00,,,0.00,meteohub,2013-06-02 00:57:00,
2013-06-01 18:02:00,74.5,43.5,30.17,SSW,213,0.0,4.0,33,0.00,,,0.00,meteohub,2013-06-02 01:02:00,
2013-06-01 18:07:00,73.9,45.3,30.17,NW,309,0.0,3.0,36,0.00,,,0.00,meteohub,2013-06-02 01:07:00,
2013-06-01 18:12:00,72.0,43.5,30.17,NNE,20,1.0,3.0,36,0.00,,,0.00,meteohub,2013-06-02 01:12:00,
2013-06-01 18:17:00,70.3,46.2,30.17,NW,313,0.0,3.0,42,0.00,,,0.00,meteohub,2013-06-02 01:17:00,
2013-06-01 18:22:00,69.3,43.9,30.17,NE,39,2.0,3.0,40,0.00,,,0.00,meteohub,2013-06-02 01:22:00,
2013-06-01 18:27:00,69.4,44.8,30.16,NE,40,0.0,3.0,41,0.00,,,0.00,meteohub,2013-06-02 01:27:00,
2013-06-01 18:32:00,70.3,42.8,30.16,SE,138,1.0,3.0,37,0.00,,,0.00,meteohub,2013-06-02 01:32:00,
2013-06-01 18:37:00,71.2,43.0,30.16,SW,236,0.0,3.0,36,0.00,,,0.00,meteohub,2013-06-02 01:37:00,
2013-06-01 18:42:00,71.4,42.3,30.16,SW,233,0.0,3.0,35,0.00,,,0.00,meteohub,2013-06-02 01:42:00,
2013-06-01 18:47:00,71.4,43.7,30.16,SW,233,0.0,3.0,37,0.00,,,0.00,meteohub,2013-06-02 01:47:00,
2013-06-01 18:52:00,71.2,43.0,30.16,SW,229,0.0,3.0,36,0.00,,,0.00,meteohub,2013-06-02 01:52:00,
2013-06-01 18:57:00,70.9,42.6,30.16,SW,218,0.0,2.0,36,0.00,,,0.00,meteohub,2013-06-02 01:57:00,
2013-06-01 19:02:00,70.5,43.0,30.16,SW,218,0.0,2.0,37,0.00,,,0.00,meteohub,2013-06-02 02:02:00,
2013-06-01 19:07:00,70.3,42.1,30.16,SW,218,0.0,2.0,36,0.00,,,0.00,meteohub,2013-06-02 02:07:00,
2013-06-01 19:13:00,70.0,42.4,30.16,SW,218,0.0,1.0,37,0.00,,,0.00,meteohub,2013-06-02 02:13:00,
2013-06-01 19:18:00,69.6,42.3,30.16,SW,218,0.0,0.0,37,0.00,,,0.00,meteohub,2013-06-02 02:18:00,
2013-06-01 19:23:00,69.3,42.6,30.16,SW,218,0.0,0.0,38,0.00,,,0.00,meteohub,2013-06-02 02:23:00,
2013-06-01 19:28:00,68.7,42.8,30.16,SW,218,0.0,0.0,39,0.00,,,0.00,meteohub,2013-06-02 02:28:00,
2013-06-01 19:33:00,68.4,43.7,30.16,SW,218,0.0,0.0,41,0.00,,,0.00,meteohub,2013-06-02 02:33:00,
2013-06-01 19:38:00,68.2,43.5,30.16,SW,218,0.0,0.0,41,0.00,,,0.00,meteohub,2013-06-02 02:38:00,
2013-06-01 19:43:00,67.8,43.3,30.16,SW,218,0.0,0.0,41,0.00,,,0.00,meteohub,2013-06-02 02:43:00,
2013-06-01 19:48:00,67.6,44.4,30.16,SW,218,0.0,0.0,43,0.00,,,0.00,meteohub,2013-06-02 02:48:00,
2013-06-01 19:53:00,67.6,44.4,30.16,NE,35,4.0,0.0,43,0.00,,,0.00,meteohub,2013-06-02 02:53:00,
2013-06-01 19:58:00,65.7,47.5,30.16,ENE,57,0.0,5.0,52,0.00,,,0.00,meteohub,2013-06-02 02:58:00,
2013-06-01 20:03:00,64.9,47.8,30.16,NNE,32,6.0,6.0,54,0.00,,,0.00,meteohub,2013-06-02 03:03:00,
2013-06-01 20:08:00,64.2,47.3,30.16,NNW,329,2.0,10.0,54,0.00,,,0.00,meteohub,2013-06-02 03:08:00,
2013-06-01 20:13:00,63.9,51.1,30.16,NE,44,2.0,10.0,63,0.00,,,0.00,meteohub,2013-06-02 03:13:00,
2013-06-01 20:18:00,63.3,47.8,30.16,East,93,0.0,10.0,57,0.00,,,0.00,meteohub,2013-06-02 03:18:00,
2013-06-01 20:23:00,63.1,49.5,30.16,East,87,3.0,8.0,61,0.00,,,0.00,meteohub,2013-06-02 03:23:00,
2013-06-01 20:28:00,62.8,48.7,30.16,East,98,0.0,8.0,60,0.00,,,0.00,meteohub,2013-06-02 03:28:00,
2013-06-01 20:33:00,62.4,49.3,30.16,East,98,0.0,8.0,62,0.00,,,0.00,meteohub,2013-06-02 03:33:00,
2013-06-01 20:38:00,62.1,50.5,30.16,ENE,58,2.0,3.0,66,0.00,,,0.00,meteohub,2013-06-02 03:38:00,
2013-06-01 20:43:00,61.9,48.7,30.16,East,93,1.0,3.0,62,0.00,,,0.00,meteohub,2013-06-02 03:43:00,
2013-06-01 20:48:00,62.1,48.0,30.16,East,97,1.0,3.0,60,0.00,,,0.00,meteohub,2013-06-02 03:48:00,
2013-06-01 20:53:00,62.1,47.5,30.16,East,96,0.0,3.0,59,0.00,,,0.00,meteohub,2013-06-02 03:53:00,
2013-06-01 20:58:00,61.9,47.5,30.16,South,169,0.0,3.0,59,0.00,,,0.00,meteohub,2013-06-02 03:58:00,
2013-06-01 21:01:00,61.7,47.3,30.16,SSE,168,0.0,3.0,59,0.00,,,0.00,meteohub,2013-06-02 04:01:00,
2013-06-01 21:02:00,61.5,46.6,30.16,SSE,167,0.0,3.0,58,0.00,,,0.00,meteohub,2013-06-02 04:02:00,
2013-06-01 21:07:00,61.3,46.4,30.16,ESE,113,0.0,1.0,58,0.00,,,0.00,meteohub,2013-06-02 04:07:00,
2013-06-01 21:12:00,61.2,46.2,30.16,ESE,113,0.0,1.0,58,0.00,,,0.00,meteohub,2013-06-02 04:12:00,
2013-06-01 21:17:00,61.0,45.7,30.16,ESE,113,0.0,1.0,57,0.00,,,0.00,meteohub,2013-06-02 04:17:00,
2013-06-01 21:22:00,60.6,45.7,30.16,SE,140,0.0,1.0,58,0.00,,,0.00,meteohub,2013-06-02 04:22:00,
2013-06-01 21:27:00,60.4,44.6,30.16,SE,139,0.0,0.0,56,0.00,,,0.00,meteohub,2013-06-02 04:27:00,
2013-06-01 21:32:00,60.3,44.4,30.16,South,173,0.0,0.0,56,0.00,,,0.00,meteohub,2013-06-02 04:32:00,
2013-06-01 21:37:00,60.1,45.3,30.16,SSE,150,0.0,0.0,58,0.00,,,0.00,meteohub,2013-06-02 04:37:00,
2013-06-01 21:42:00,60.1,44.8,30.17,SE,138,0.0,0.0,57,0.00,,,0.00,meteohub,2013-06-02 04:42:00,
2013-06-01 21:47:00,59.7,44.4,30.17,SSE,152,0.0,1.0,57,0.00,,,0.00,meteohub,2013-06-02 04:47:00,
2013-06-01 21:52:00,59.5,44.8,30.17,SSW,202,0.0,2.0,58,0.00,,,0.00,meteohub,2013-06-02 04:52:00,
2013-06-01 21:57:00,59.0,44.8,30.17,SSE,155,0.0,2.0,59,0.00,,,0.00,meteohub,2013-06-02 04:57:00,
2013-06-01 22:02:00,58.6,44.8,30.17,SSE,168,1.0,2.0,60,0.00,,,0.00,meteohub,2013-06-02 05:02:00,
2013-06-01 22:07:00,58.5,44.6,30.17,SSE,154,2.0,2.0,60,0.00,,,0.00,meteohub,2013-06-02 05:07:00,
2013-06-01 22:12:00,57.9,44.6,30.17,SSE,152,0.0,2.0,61,0.00,,,0.00,meteohub,2013-06-02 05:12:00,
2013-06-01 22:17:00,57.6,44.2,30.17,South,169,1.0,2.0,61,0.00,,,0.00,meteohub,2013-06-02 05:17:00,
2013-06-01 22:22:00,57.2,44.2,30.17,SSE,152,0.0,2.0,62,0.00,,,0.00,meteohub,2013-06-02 05:22:00,
2013-06-01 22:27:00,56.8,43.9,30.17,SSE,153,0.0,2.0,62,0.00,,,0.00,meteohub,2013-06-02 05:27:00,
2013-06-01 22:32:00,56.7,43.7,30.17,SSE,164,0.0,2.0,62,0.00,,,0.00,meteohub,2013-06-02 05:32:00,
2013-06-01 22:37:00,56.3,43.5,30.17,South,184,0.0,2.0,62,0.00,,,0.00,meteohub,2013-06-02 05:37:00,
2013-06-01 22:42:00,55.9,43.5,30.17,South,188,0.0,2.0,63,0.00,,,0.00,meteohub,2013-06-02 05:42:00,
2013-06-01 22:48:00,55.8,43.3,30.17,SE,141,1.0,1.0,63,0.00,,,0.00,meteohub,2013-06-02 05:48:00,
2013-06-01 22:53:00,55.6,43.2,30.17,South,185,0.0,1.0,63,0.00,,,0.00,meteohub,2013-06-02 05:53:00,
2013-06-01 22:58:00,55.2,42.8,30.17,SSE,150,0.0,2.0,63,0.00,,,0.00,meteohub,2013-06-02 05:58:00,
2013-06-01 23:03:00,55.0,43.2,30.17,SSE,159,0.0,2.0,64,0.00,,,0.00,meteohub,2013-06-02 06:03:00,
2013-06-01 23:08:00,54.7,42.8,30.16,SE,139,0.0,2.0,64,0.00,,,0.00,meteohub,2013-06-02 06:08:00,
2013-06-01 23:13:00,54.5,42.6,30.16,SE,144,0.0,1.0,64,0.00,,,0.00,meteohub,2013-06-02 06:13:00,
2013-06-01 23:18:00,54.1,42.3,30.16,SSE,153,0.0,1.0,64,0.00,,,0.00,meteohub,2013-06-02 06:18:00,
2013-06-01 23:23:00,54.0,42.1,30.16,SSW,195,0.0,1.0,64,0.00,,,0.00,meteohub,2013-06-02 06:23:00,
2013-06-01 23:28:00,53.8,41.9,30.16,SSE,157,1.0,1.0,64,0.00,,,0.00,meteohub,2013-06-02 06:28:00,
2013-06-01 23:33:00,53.6,41.7,30.16,SSW,199,0.0,1.0,64,0.00,,,0.00,meteohub,2013-06-02 06:33:00,
2013-06-01 23:38:00,53.4,41.9,30.16,SSE,161,0.0,2.0,65,0.00,,,0.00,meteohub,2013-06-02 06:38:00,
2013-06-01 23:43:00,53.2,41.7,30.15,South,171,0.0,2.0,65,0.00,,,0.00,meteohub,2013-06-02 06:43:00,
2013-06-01 23:48:00,53.1,41.5,30.15,SE,128,0.0,2.0,65,0.00,,,0.00,meteohub,2013-06-02 06:48:00,
2013-06-01 23:53:00,52.9,41.4,30.15,South,175,0.0,2.0,65,0.00,,,0.00,meteohub,2013-06-02 06:53:00,
2013-06-01 23:58:00,52.5,41.2,30.15,SE,144,1.0,1.0,65,0.00,,,0.00,meteohub,2013-06-02 06:58:00,